Terminal Aerodrome Forecast
Issued by NWS

Home | Current Version | Previous Version | Text Only | Print | Product List | Glossary On
Versions: 1 2 3 4 5 6 7 8 9 10 11 12 13 14 15 16 17 18 19 20 21 22 23 24 25 26
000
FTUS45 KREV 072341
TAFCXP
TAF
KCXP 072341Z 0800/0824 07011KT P6SM BKN045 OVC100
     FM080100 08008KT 5SM -SN SCT015 OVC040
      TEMPO 0802/0806 2SM -SN BR OVC010
     FM080600 VRB04KT 3SM -SN BR SCT010 OVC025
      TEMPO 0812/0816 6SM -FZRA OVC025
     FM081600 20008KT 6SM -RASN SCT015 OVC040
     FM081800 21010KT P6SM -SHRA SCT025 BKN040
     FM082000 24012G20KT P6SM VCSH SCT040 OVC100=

USA.gov is the U.S. government's official web portal to all federal, state and local government web resources and services.